Terminal Aerodrome Forecast
Issued by NWS

Home | Current Version | Previous Version | Text Only | Print | Product List | Glossary On
Versions: 1 2 3 4 5 6 7 8 9 10 11 12 13 14 15 16 17 18 19
000
FTAK31 PAFA 262036 AAA
TAFAMC
TAF AMD
PAMC 262036Z 2621/2718 02009KT P6SM VCSH BKN022 BKN026 OVC040
     FM262230 03008KT P6SM FEW050 SCT100 BKN200
     FM270100 04010KT P6SM BKN050 BKN100
     FM270800 33008KT P6SM FEW050 SCT100=

USA.gov is the U.S. government's official web portal to all federal, state and local government web resources and services.